Ridgecrest, California
Current Conditions -  °F | °C
As of 3:55 PM on Sunday 21 Dec 2014 (Local Time) from K9L2 Reporting Station
Clear Clear  
Wind Chill: 58°   Ceiling: Unl
Heat Index: 58°   Visibility: 10mi
Dew Point: 44°   Wind: 6mph
Humidity: 60%   Direction: 360°N
Pressure: 30.12"   Gusts: NA
Location:  35.62°N, 117.66°W
Report Text: K9L2 212355Z AUTO 36005KT 10SM CLR 14/07 A3012 RMK AO2 SLP204 T01440067 10156 20067 53005 TSNO $
Loading
Personal Weather Stations






























Interactive Weather Map New forecast layout! Learn more

10-Day Weather Forecast

Advertisements
Track Severe Weather on mobile